Time;durP1;ratioP1;P1;durP2;ratioP2;P2;SDS_P1;SDS_P2;PMS_P1;PMS_P2;Temp;Humidity;BMP_temperature;BMP_pressure;BME280_temperature;BME280_humidity;BME280_pressure;Samples;Min_cycle;Max_cycle;Signal;HPM_P1;HPM_P2
2021/03/24 00:05:09;;;;;;;19.48;11.27;;;;;;;;;;5017965;28;20466;-88
2021/03/24 00:07:35;;;;;;;18.77;10.73;;;;;;;;;;5017529;28;20041;-88
2021/03/24 00:10:01;;;;;;;14.18;9.73;;;;;;;;;;5000206;28;20068;-89
2021/03/24 00:15:30;;;;;;;15.43;9.88;;;;;;;;;;5017591;28;20129;-90
2021/03/24 00:17:57;;;;;;;16.58;10.30;;;;;;;;;;5017668;28;20022;-89
2021/03/24 00:20:27;;;;;;;16.52;10.38;;;;;;;;;;5017542;28;20117;-89
2021/03/24 00:22:53;;;;;;;14.65;9.95;;;;;;;;;;5017780;28;20293;-90
2021/03/24 00:25:20;;;;;;;17.60;10.07;;;;;;;;;;5019029;28;20121;-90
2021/03/24 00:27:47;;;;;;;17.67;11.30;;;;;;;;;;5021254;28;20026;-90
2021/03/24 00:30:14;;;;;;;16.13;10.60;;;;;;;;;;5020975;28;20046;-88
2021/03/24 00:32:40;;;;;;;16.27;10.35;;;;;;;;;;5021026;28;20022;-89
2021/03/24 00:35:07;;;;;;;19.45;11.13;;;;;;;;;;5021183;28;20321;-90
2021/03/24 00:37:33;;;;;;;18.92;11.65;;;;;;;;;;5020862;28;20026;-90
2021/03/24 00:39:59;;;;;;;20.48;12.20;;;;;;;;;;5020838;28;20026;-91
2021/03/24 00:42:25;;;;;;;21.52;12.07;;;;;;;;;;5021218;28;20052;-89
2021/03/24 00:44:51;;;;;;;18.13;11.88;;;;;;;;;;5020897;28;20504;-88
2021/03/24 00:47:17;;;;;;;20.90;12.18;;;;;;;;;;5021342;28;20038;-89
2021/03/24 00:49:44;;;;;;;23.73;12.35;;;;;;;;;;5020921;28;20033;-89
2021/03/24 00:52:10;;;;;;;20.98;12.45;;;;;;;;;;5020460;28;20060;-88
2021/03/24 00:54:36;;;;;;;17.95;11.75;;;;;;;;;;5020686;28;20068;-90
2021/03/24 00:57:02;;;;;;;19.25;12.02;;;;;;;;;;5020726;28;20049;-90
2021/03/24 00:59:28;;;;;;;18.35;12.52;;;;;;;;;;5020471;28;20427;-91
2021/03/24 01:01:54;;;;;;;20.83;12.63;;;;;;;;;;5020316;28;20409;-87
2021/03/24 01:04:20;;;;;;;19.83;12.38;;;;;;;;;;5020541;28;20053;-86
2021/03/24 01:06:46;;;;;;;17.42;11.52;;;;;;;;;;5020442;28;20097;-88
2021/03/24 01:09:13;;;;;;;17.58;11.77;;;;;;;;;;5020456;28;20030;-88
2021/03/24 01:11:41;;;;;;;20.40;12.25;;;;;;;;;;5002639;28;20042;-90
2021/03/24 01:14:08;;;;;;;17.17;11.88;;;;;;;;;;5020471;28;20018;-88
2021/03/24 01:16:34;;;;;;;18.83;12.13;;;;;;;;;;5002758;28;20022;-87
2021/03/24 01:19:00;;;;;;;19.00;12.13;;;;;;;;;;5020060;28;20116;-88
2021/03/24 01:21:26;;;;;;;20.50;12.60;;;;;;;;;;5020101;28;20061;-87
2021/03/24 01:23:52;;;;;;;18.80;11.77;;;;;;;;;;5020044;28;20026;-88
2021/03/24 01:26:19;;;;;;;19.60;11.52;;;;;;;;;;5020366;28;20076;-87
2021/03/24 01:28:45;;;;;;;18.60;11.10;;;;;;;;;;5019925;28;20431;-88
2021/03/24 01:31:11;;;;;;;18.77;11.25;;;;;;;;;;5020490;28;20057;-87
2021/03/24 01:33:38;;;;;;;19.25;11.75;;;;;;;;;;5019947;28;20034;-88
2021/03/24 01:36:04;;;;;;;21.70;12.43;;;;;;;;;;5002440;28;20128;-87
2021/03/24 01:38:30;;;;;;;16.80;11.05;;;;;;;;;;5019969;28;20017;-87
2021/03/24 01:41:00;;;;;;;16.70;11.43;;;;;;;;;;5019879;28;20048;-87
2021/03/24 01:46:36;;;;;;;16.05;11.35;;;;;;;;;;5020011;28;20060;-90
2021/03/24 01:49:05;;;;;;;18.08;11.05;;;;;;;;;;5019817;28;20105;-89
2021/03/24 01:51:40;;;;;;;17.05;11.63;;;;;;;;;;5019437;28;20034;-89
2021/03/24 01:54:08;;;;;;;23.10;11.48;;;;;;;;;;5019810;28;20029;-88
2021/03/24 01:56:34;;;;;;;14.95;11.48;;;;;;;;;;5019854;28;20101;-90
2021/03/24 02:02:12;;;;;;;17.45;11.18;;;;;;;;;;5019617;28;20057;-89
2021/03/24 02:04:38;;;;;;;17.83;11.68;;;;;;;;;;5019529;28;20089;-90
2021/03/24 02:07:07;;;;;;;16.92;11.63;;;;;;;;;;5019281;28;20064;-90
2021/03/24 02:09:35;;;;;;;17.15;11.40;;;;;;;;;;5019580;28;20030;-89
2021/03/24 02:12:06;;;;;;;17.83;12.00;;;;;;;;;;5019569;28;20025;-88
2021/03/24 02:14:34;;;;;;;14.88;10.45;;;;;;;;;;5001858;28;20060;-89
2021/03/24 02:17:01;;;;;;;18.00;11.85;;;;;;;;;;5018867;28;20439;-89
2021/03/24 02:19:32;;;;;;;18.50;11.02;;;;;;;;;;5019266;28;20144;-89
2021/03/24 02:21:59;;;;;;;18.92;11.70;;;;;;;;;;5019238;28;20397;-89
2021/03/24 02:24:41;;;;;;;17.15;10.82;;;;;;;;;;5019135;28;20026;-89
2021/03/24 02:27:08;;;;;;;19.83;11.35;;;;;;;;;;5001633;28;20018;-90
2021/03/24 02:29:36;;;;;;;19.48;11.52;;;;;;;;;;5015457;28;20042;-90
2021/03/24 02:32:03;;;;;;;18.70;11.63;;;;;;;;;;5018822;28;20021;-91
2021/03/24 02:34:30;;;;;;;17.02;11.38;;;;;;;;;;5019064;28;20041;-90
2021/03/24 02:36:57;;;;;;;17.05;11.00;;;;;;;;;;5018968;28;20021;-86
2021/03/24 02:39:24;;;;;;;18.13;11.18;;;;;;;;;;5018362;28;20026;-86
2021/03/24 02:41:51;;;;;;;16.60;11.30;;;;;;;;;;5018936;28;20021;-86
2021/03/24 02:44:17;;;;;;;15.98;10.80;;;;;;;;;;5001130;28;20034;-87
2021/03/24 02:46:44;;;;;;;16.70;10.82;;;;;;;;;;5018663;28;20169;-87
2021/03/24 02:49:11;;;;;;;18.85;11.52;;;;;;;;;;5000853;28;20416;-88
2021/03/24 02:51:37;;;;;;;17.02;11.82;;;;;;;;;;5018613;28;20034;-91
2021/03/24 02:54:05;;;;;;;20.45;12.48;;;;;;;;;;5018566;28;20421;-88
2021/03/24 02:56:32;;;;;;;19.10;12.38;;;;;;;;;;5018915;28;20037;-93
2021/03/24 02:58:58;;;;;;;20.52;13.52;;;;;;;;;;5018362;28;20033;-87
2021/03/24 03:01:26;;;;;;;19.67;12.15;;;;;;;;;;5018476;28;20045;-89
2021/03/24 03:03:58;;;;;;;18.85;12.52;;;;;;;;;;5001023;28;20038;-89
2021/03/24 03:06:26;;;;;;;16.33;11.30;;;;;;;;;;5018323;28;20141;-88
2021/03/24 03:08:55;;;;;;;20.02;12.98;;;;;;;;;;5000941;28;20076;-87
2021/03/24 03:11:43;;;;;;;19.23;12.38;;;;;;;;;;5000772;28;20045;-88
2021/03/24 03:20:21;;;;;;;17.77;11.82;;;;;;;;;;5017942;28;20076;-86
2021/03/24 03:22:50;;;;;;;18.67;11.02;;;;;;;;;;5000594;28;20098;-88
2021/03/24 03:25:20;;;;;;;18.40;11.27;;;;;;;;;;5017762;28;20022;-87
2021/03/24 03:27:47;;;;;;;14.88;10.77;;;;;;;;;;5017907;28;20033;-87
2021/03/24 03:30:14;;;;;;;17.60;11.40;;;;;;;;;;5000360;28;20045;-88
2021/03/24 03:32:42;;;;;;;18.13;11.90;;;;;;;;;;5018078;28;20125;-88
2021/03/24 03:35:11;;;;;;;18.35;11.25;;;;;;;;;;5018098;28;20048;-89
2021/03/24 03:37:38;;;;;;;18.23;12.20;;;;;;;;;;5000513;28;20033;-87
2021/03/24 03:40:05;;;;;;;20.38;12.48;;;;;;;;;;5017860;28;20022;-88
2021/03/24 03:42:31;;;;;;;18.63;12.27;;;;;;;;;;5000338;28;20113;-87
2021/03/24 03:48:13;;;;;;;20.92;12.82;;;;;;;;;;5017884;28;20073;-88
2021/03/24 03:50:40;;;;;;;21.08;12.93;;;;;;;;;;5017691;28;20022;-91
2021/03/24 03:53:06;;;;;;;22.92;13.27;;;;;;;;;;5018055;28;20030;-90
2021/03/24 03:55:41;;;;;;;21.17;14.50;;;;;;;;;;5017851;28;20049;-90
2021/03/24 03:58:13;;;;;;;21.88;13.35;;;;;;;;;;5018039;28;20048;-90
2021/03/24 04:00:44;;;;;;;21.70;13.07;;;;;;;;;;5020136;28;20026;-90
2021/03/24 04:03:21;;;;;;;23.23;14.45;;;;;;;;;;5004277;28;20034;-88
2021/03/24 04:06:01;;;;;;;22.20;14.15;;;;;;;;;;5021924;28;20033;-90
2021/03/24 04:08:32;;;;;;;22.83;14.23;;;;;;;;;;5021943;28;20464;-90
2021/03/24 04:11:00;;;;;;;22.08;13.88;;;;;;;;;;5021791;28;20404;-89
2021/03/24 04:13:46;;;;;;;22.25;13.57;;;;;;;;;;5004016;28;20034;-88
2021/03/24 04:16:13;;;;;;;24.75;15.48;;;;;;;;;;5021278;28;20030;-88
2021/03/24 04:18:41;;;;;;;22.02;14.43;;;;;;;;;;5021164;28;20125;-87
2021/03/24 04:21:09;;;;;;;25.83;15.95;;;;;;;;;;5021692;28;20030;-90
2021/03/24 04:23:38;;;;;;;23.88;14.38;;;;;;;;;;5021303;28;20022;-89
2021/03/24 04:26:08;;;;;;;22.95;15.15;;;;;;;;;;5021579;28;20049;-88
2021/03/24 04:28:36;;;;;;;21.27;14.43;;;;;;;;;;5021365;28;20048;-88
2021/03/24 04:31:05;;;;;;;23.40;15.07;;;;;;;;;;5003710;28;20084;-89
2021/03/24 04:33:31;;;;;;;23.50;15.43;;;;;;;;;;5020998;28;20052;-88
2021/03/24 04:36:01;;;;;;;26.08;16.20;;;;;;;;;;5021157;28;20463;-90
2021/03/24 04:38:40;;;;;;;25.58;16.80;;;;;;;;;;5021002;28;20022;-89
2021/03/24 04:41:08;;;;;;;24.75;15.73;;;;;;;;;;5021020;28;20026;-89
2021/03/24 04:46:39;;;;;;;28.23;17.00;;;;;;;;;;5020767;28;20029;-88
2021/03/24 04:49:38;;;;;;;26.58;16.35;;;;;;;;;;5021168;28;20026;-92
2021/03/24 04:52:05;;;;;;;24.58;15.07;;;;;;;;;;4960912;29;20042;-91
2021/03/24 04:54:33;;;;;;;25.40;15.60;;;;;;;;;;4960804;29;20087;-91
2021/03/24 04:57:02;;;;;;;24.35;15.45;;;;;;;;;;4960645;29;20114;-90
2021/03/24 04:59:30;;;;;;;31.70;18.38;;;;;;;;;;4944684;29;20055;-91
2021/03/24 05:01:59;;;;;;;32.28;18.15;;;;;;;;;;4960545;29;20043;-92
2021/03/24 05:04:25;;;;;;;26.52;16.90;;;;;;;;;;4960733;29;20114;-91
2021/03/24 05:07:11;;;;;;;24.10;15.43;;;;;;;;;;4960622;29;20074;-91
2021/03/24 05:09:37;;;;;;;23.58;16.17;;;;;;;;;;4960495;29;20023;-92
2021/03/24 05:12:17;;;;;;;24.45;15.55;;;;;;;;;;4960224;28;20070;-92
2021/03/24 05:15:02;;;;;;;24.77;15.70;;;;;;;;;;4960361;29;20039;-91
2021/03/24 05:17:34;;;;;;;24.42;15.05;;;;;;;;;;4960218;29;20075;-93
2021/03/24 05:20:09;;;;;;;23.65;15.35;;;;;;;;;;4960189;29;20335;-89
2021/03/24 05:22:44;;;;;;;26.05;15.98;;;;;;;;;;4960240;29;20042;-89
2021/03/24 05:25:22;;;;;;;24.80;16.02;;;;;;;;;;4960242;29;20038;-90
2021/03/24 05:28:11;;;;;;;26.45;16.10;;;;;;;;;;4978570;28;20038;-90
2021/03/24 05:30:39;;;;;;;24.58;16.17;;;;;;;;;;4943806;29;20057;-91
2021/03/24 05:33:10;;;;;;;25.15;16.63;;;;;;;;;;4960035;29;20035;-91
2021/03/24 05:35:41;;;;;;;23.65;15.75;;;;;;;;;;4960176;29;20409;-89
2021/03/24 05:38:13;;;;;;;24.23;15.67;;;;;;;;;;4960146;29;20445;-91
2021/03/24 05:40:44;;;;;;;25.63;16.67;;;;;;;;;;4959823;29;20306;-89
2021/03/24 05:43:18;;;;;;;25.88;15.05;;;;;;;;;;4959336;28;20028;-91
2021/03/24 05:45:50;;;;;;;28.30;16.58;;;;;;;;;;4960177;29;20433;-90
2021/03/24 05:48:35;;;;;;;30.23;15.35;;;;;;;;;;4959885;29;20035;-90
2021/03/24 05:51:01;;;;;;;23.40;15.27;;;;;;;;;;4959472;29;20039;-89
2021/03/24 05:53:40;;;;;;;23.70;15.77;;;;;;;;;;4959741;29;20398;-90
2021/03/24 05:56:28;;;;;;;27.67;15.85;;;;;;;;;;4959651;29;20035;-89
2021/03/24 05:59:13;;;;;;;26.88;16.23;;;;;;;;;;4959500;29;20295;-90
2021/03/24 06:02:01;;;;;;;25.02;15.88;;;;;;;;;;4959238;29;20066;-90
2021/03/24 06:04:45;;;;;;;29.25;16.45;;;;;;;;;;4883530;29;20045;-89
2021/03/24 06:07:29;;;;;;;25.35;15.85;;;;;;;;;;4874250;29;20036;-89
2021/03/24 06:10:24;;;;;;;26.05;15.55;;;;;;;;;;4902508;29;20119;-89
2021/03/24 06:13:05;;;;;;;22.60;14.90;;;;;;;;;;4883689;29;20183;-89
2021/03/24 06:15:31;;;;;;;24.30;15.55;;;;;;;;;;4883438;29;20065;-90
2021/03/24 06:18:00;;;;;;;22.83;15.05;;;;;;;;;;4883705;29;20071;-89
2021/03/24 06:20:30;;;;;;;23.63;15.43;;;;;;;;;;4883167;29;20029;-90
2021/03/24 06:23:12;;;;;;;23.10;14.85;;;;;;;;;;4882419;29;20040;-88
2021/03/24 06:25:44;;;;;;;24.10;14.82;;;;;;;;;;4883551;29;20044;-89
2021/03/24 06:28:18;;;;;;;22.75;14.52;;;;;;;;;;4883209;29;20036;-89
2021/03/24 06:30:44;;;;;;;22.13;14.23;;;;;;;;;;4882996;29;20055;-88
2021/03/24 06:33:25;;;;;;;21.90;14.68;;;;;;;;;;4883349;29;20048;-88
2021/03/24 06:35:54;;;;;;;27.38;15.77;;;;;;;;;;4883100;29;20401;-88
2021/03/24 06:38:26;;;;;;;25.83;16.42;;;;;;;;;;4882909;29;20082;-88
2021/03/24 06:41:04;;;;;;;22.35;15.40;;;;;;;;;;4893399;29;20043;-89
2021/03/24 06:43:30;;;;;;;24.50;15.10;;;;;;;;;;4920507;29;20160;-89
2021/03/24 06:46:14;;;;;;;23.63;14.75;;;;;;;;;;4920773;29;20068;-89
2021/03/24 06:48:52;;;;;;;26.48;16.23;;;;;;;;;;4937562;28;20042;-90
2021/03/24 06:51:37;;;;;;;27.92;16.42;;;;;;;;;;4979588;28;20082;-91
2021/03/24 06:54:09;;;;;;;24.40;15.40;;;;;;;;;;4979311;28;20015;-89
2021/03/24 06:56:35;;;;;;;23.77;16.05;;;;;;;;;;4978556;28;20133;-90
2021/03/24 06:59:20;;;;;;;34.33;19.10;;;;;;;;;;4979474;28;20118;-90
2021/03/24 07:02:05;;;;;;;26.42;15.27;;;;;;;;;;4978344;28;20037;-89
2021/03/24 07:04:33;;;;;;;24.80;14.85;;;;;;;;;;4979271;28;20357;-88
2021/03/24 07:07:02;;;;;;;24.38;15.05;;;;;;;;;;4978377;28;20034;-88
2021/03/24 07:09:32;;;;;;;23.48;14.40;;;;;;;;;;4979202;28;20425;-90
2021/03/24 07:12:13;;;;;;;21.05;14.73;;;;;;;;;;4978215;28;20418;-89
2021/03/24 07:14:39;;;;;;;24.35;15.13;;;;;;;;;;4978106;28;20114;-88
2021/03/24 07:17:12;;;;;;;22.65;14.60;;;;;;;;;;4979047;28;20027;-89
2021/03/24 07:20:01;;;;;;;20.00;14.38;;;;;;;;;;4977980;28;20137;-88
2021/03/24 07:22:33;;;;;;;22.33;14.57;;;;;;;;;;4978897;28;20023;-89
2021/03/24 07:25:17;;;;;;;23.88;15.55;;;;;;;;;;4979116;28;20025;-91
2021/03/24 07:27:44;;;;;;;23.80;13.55;;;;;;;;;;4978039;28;20034;-91
2021/03/24 07:30:28;;;;;;;22.80;14.13;;;;;;;;;;4988644;28;20114;-90
2021/03/24 07:32:56;;;;;;;21.13;13.60;;;;;;;;;;4998199;28;20405;-90
2021/03/24 07:35:41;;;;;;;24.48;15.45;;;;;;;;;;4997869;28;20030;-90
2021/03/24 07:38:25;;;;;;;24.52;16.23;;;;;;;;;;4980682;28;20034;-90
2021/03/24 07:41:12;;;;;;;23.00;14.35;;;;;;;;;;4998188;28;20033;-89
2021/03/24 07:44:02;;;;;;;34.50;19.45;;;;;;;;;;4997693;28;20026;-79
2021/03/24 07:46:28;;;;;;;33.15;16.95;;;;;;;;;;4997543;28;20393;-79
2021/03/24 07:49:07;;;;;;;28.23;17.00;;;;;;;;;;4980307;28;20169;-79
2021/03/24 07:51:52;;;;;;;50.28;26.10;;;;;;;;;;4997691;28;20060;-84
2021/03/24 07:54:38;;;;;;;59.65;32.58;;;;;;;;;;4998350;28;20033;-93
2021/03/24 07:57:12;;;;;;;69.47;39.60;;;;;;;;;;4979998;28;20065;-76
2021/03/24 07:59:45;;;;;;;45.00;26.00;;;;;;;;;;4997293;28;20517;-76
2021/03/24 08:02:11;;;;;;;29.30;17.80;;;;;;;;;;4980164;28;20030;-76
2021/03/24 08:04:57;;;;;;;37.10;21.90;;;;;;;;;;4997448;28;20033;-76
2021/03/24 08:07:23;;;;;;;28.73;17.52;;;;;;;;;;4979693;28;20035;-76
2021/03/24 08:10:07;;;;;;;24.48;15.55;;;;;;;;;;4997545;28;20023;-77
2021/03/24 08:12:55;;;;;;;24.70;15.20;;;;;;;;;;4980167;28;20049;-76
2021/03/24 08:15:21;;;;;;;24.65;13.60;;;;;;;;;;4997264;28;20033;-77
2021/03/24 08:18:03;;;;;;;21.92;12.95;;;;;;;;;;4997250;28;20417;-77
2021/03/24 08:20:36;;;;;;;20.65;12.68;;;;;;;;;;4997052;28;20073;-76
2021/03/24 08:23:02;;;;;;;21.02;13.43;;;;;;;;;;4997194;28;20030;-77
2021/03/24 08:25:30;;;;;;;23.60;13.23;;;;;;;;;;4997286;28;20023;-77
2021/03/24 08:27:57;;;;;;;20.25;13.50;;;;;;;;;;4997201;28;20023;-76
2021/03/24 08:30:26;;;;;;;24.58;14.38;;;;;;;;;;4996948;28;20461;-76
2021/03/24 08:33:00;;;;;;;23.80;14.98;;;;;;;;;;4997387;28;20038;-77
2021/03/24 08:35:45;;;;;;;24.23;15.95;;;;;;;;;;4979958;28;20034;-76
2021/03/24 08:38:14;;;;;;;28.95;17.45;;;;;;;;;;4997190;28;20030;-76
2021/03/24 08:40:41;;;;;;;24.65;15.93;;;;;;;;;;4997016;28;20054;-76
2021/03/24 08:43:22;;;;;;;25.50;16.60;;;;;;;;;;4979116;28;20030;-76
2021/03/24 08:45:57;;;;;;;35.38;20.55;;;;;;;;;;4997967;28;20028;-76
2021/03/24 08:48:33;;;;;;;34.38;19.42;;;;;;;;;;5000684;28;20025;-76
2021/03/24 08:51:03;;;;;;;25.23;16.23;;;;;;;;;;5000578;28;20034;-76
2021/03/24 08:53:48;;;;;;;27.45;16.60;;;;;;;;;;4982797;28;20039;-76
2021/03/24 08:56:14;;;;;;;33.08;19.27;;;;;;;;;;5000724;28;20026;-76
2021/03/24 08:58:43;;;;;;;31.77;18.60;;;;;;;;;;4982639;28;20364;-76
2021/03/24 09:01:35;;;;;;;35.35;24.40;;;;;;;;;;5000397;28;20364;-76
2021/03/24 09:04:12;;;;;;;31.83;18.55;;;;;;;;;;4995897;28;20049;-76
2021/03/24 09:06:57;;;;;;;28.98;18.75;;;;;;;;;;5000254;28;20031;-76
2021/03/24 09:09:27;;;;;;;29.20;18.40;;;;;;;;;;5000399;28;20034;-77
2021/03/24 09:11:56;;;;;;;27.25;16.60;;;;;;;;;;5000190;28;20054;-76
2021/03/24 09:14:32;;;;;;;26.52;16.95;;;;;;;;;;5000172;28;20101;-76
2021/03/24 09:17:16;;;;;;;29.63;18.35;;;;;;;;;;4982449;28;20088;-78
2021/03/24 09:20:01;;;;;;;33.20;20.05;;;;;;;;;;5000037;28;20034;-75
2021/03/24 09:22:30;;;;;;;30.73;19.67;;;;;;;;;;5000031;28;20044;-75
2021/03/24 09:25:05;;;;;;;29.35;18.55;;;;;;;;;;4999973;28;20413;-75
2021/03/24 09:27:50;;;;;;;30.33;17.55;;;;;;;;;;4999784;28;20022;-75
2021/03/24 09:30:35;;;;;;;26.77;17.83;;;;;;;;;;4999678;28;20142;-75
2021/03/24 09:33:22;;;;;;;27.40;18.45;;;;;;;;;;4982502;28;20031;-75
2021/03/24 09:36:20;;;;;;;23.35;17.05;;;;;;;;;;4901924;29;20051;-75
2021/03/24 09:38:47;;;;;;;20.63;12.70;;;;;;;;;;4827952;29;20042;-75
2021/03/24 09:41:19;;;;;;;17.52;12.30;;;;;;;;;;4827873;29;20183;-75
2021/03/24 09:43:51;;;;;;;14.70;11.00;;;;;;;;;;4827863;29;20102;-75
2021/03/24 09:46:36;;;;;;;15.85;9.57;;;;;;;;;;4828050;29;20356;-75
2021/03/24 09:49:04;;;;;;;17.38;10.93;;;;;;;;;;4827736;29;20084;-75
2021/03/24 09:51:45;;;;;;;13.77;9.15;;;;;;;;;;4827810;29;20109;-83
2021/03/24 09:54:24;;;;;;;12.07;8.50;;;;;;;;;;4827923;29;20175;-82
2021/03/24 09:57:12;;;;;;;23.15;14.25;;;;;;;;;;4827222;29;20082;-83
2021/03/24 09:59:38;;;;;;;17.08;12.20;;;;;;;;;;4827507;29;20042;-82
2021/03/24 10:02:22;;;;;;;18.83;11.35;;;;;;;;;;4827535;29;20038;-83
2021/03/24 10:04:50;;;;;;;14.85;9.95;;;;;;;;;;4827529;29;20030;-83
2021/03/24 10:07:18;;;;;;;17.45;10.82;;;;;;;;;;4827419;29;20478;-82
2021/03/24 10:09:44;;;;;;;17.92;10.65;;;;;;;;;;4827686;29;20037;-82
2021/03/24 10:12:19;;;;;;;12.13;8.32;;;;;;;;;;4842500;29;20037;-83
2021/03/24 10:14:51;;;;;;;13.63;8.98;;;;;;;;;;4967670;28;20034;-83
2021/03/24 10:17:44;;;;;;;12.70;9.00;;;;;;;;;;4981863;28;20027;-83
2021/03/24 10:20:22;;;;;;;14.05;9.20;;;;;;;;;;4901214;29;20462;-82
2021/03/24 10:22:50;;;;;;;17.33;10.13;;;;;;;;;;4901364;29;20055;-83
2021/03/24 10:25:21;;;;;;;17.65;11.00;;;;;;;;;;4901231;29;20033;-82
2021/03/24 10:27:49;;;;;;;21.65;12.82;;;;;;;;;;4901251;29;20367;-82
2021/03/24 10:30:15;;;;;;;19.48;11.13;;;;;;;;;;4901035;29;20056;-83
2021/03/24 10:32:43;;;;;;;15.90;8.73;;;;;;;;;;4901119;29;20037;-82
2021/03/24 10:35:18;;;;;;;12.75;7.80;;;;;;;;;;4901139;29;20396;-82
2021/03/24 10:37:44;;;;;;;12.38;7.35;;;;;;;;;;4900997;28;20344;-83
2021/03/24 10:40:17;;;;;;;11.52;7.30;;;;;;;;;;4900948;29;20025;-82
2021/03/24 10:43:09;;;;;;;12.80;7.05;;;;;;;;;;4900855;29;20116;-82
2021/03/24 10:45:44;;;;;;;9.90;6.57;;;;;;;;;;4827096;29;20038;-82
2021/03/24 10:48:10;;;;;;;12.32;6.43;;;;;;;;;;4827171;29;20042;-82
2021/03/24 10:50:41;;;;;;;9.80;6.35;;;;;;;;;;4826682;29;20069;-82
2021/03/24 10:53:24;;;;;;;9.27;6.40;;;;;;;;;;4826711;29;20090;-82
2021/03/24 10:56:04;;;;;;;10.43;6.13;;;;;;;;;;4830282;29;20047;-82
2021/03/24 10:58:36;;;;;;;9.98;7.05;;;;;;;;;;4900792;29;20036;-82
2021/03/24 11:01:21;;;;;;;10.38;6.90;;;;;;;;;;4900715;29;20028;-82
2021/03/24 11:04:06;;;;;;;9.98;6.60;;;;;;;;;;4900623;29;20492;-82
2021/03/24 11:06:35;;;;;;;13.38;6.40;;;;;;;;;;4900610;29;20032;-82
2021/03/24 11:09:01;;;;;;;12.25;6.25;;;;;;;;;;4900207;29;20345;-82
2021/03/24 11:11:36;;;;;;;11.90;6.40;;;;;;;;;;4900496;29;20024;-83
2021/03/24 11:14:06;;;;;;;12.02;6.60;;;;;;;;;;4900721;29;20035;-82
2021/03/24 11:16:41;;;;;;;9.10;6.35;;;;;;;;;;4900183;29;20032;-82
2021/03/24 11:19:11;;;;;;;12.57;6.95;;;;;;;;;;4900192;29;20035;-83
2021/03/24 11:21:39;;;;;;;13.70;8.57;;;;;;;;;;4920103;28;20038;-82
2021/03/24 11:24:26;;;;;;;13.75;8.50;;;;;;;;;;5017511;28;20033;-82
2021/03/24 11:27:03;;;;;;;13.00;7.80;;;;;;;;;;5016870;28;20030;-82
2021/03/24 11:29:31;;;;;;;10.80;7.63;;;;;;;;;;5017202;28;20099;-81
2021/03/24 11:32:06;;;;;;;9.63;6.85;;;;;;;;;;5017549;28;20050;-82
2021/03/24 11:34:32;;;;;;;10.88;6.70;;;;;;;;;;5017301;28;20077;-83
2021/03/24 11:37:02;;;;;;;9.00;6.10;;;;;;;;;;5017421;28;20116;-83
2021/03/24 11:39:40;;;;;;;11.40;5.97;;;;;;;;;;5016831;28;20316;-83
2021/03/24 11:42:15;;;;;;;10.93;6.88;;;;;;;;;;4999686;28;20034;-83
2021/03/24 11:44:42;;;;;;;11.00;6.65;;;;;;;;;;4999690;28;20464;-82
2021/03/24 11:47:08;;;;;;;9.85;6.00;;;;;;;;;;5017074;28;20026;-83
2021/03/24 11:49:43;;;;;;;9.45;5.85;;;;;;;;;;4997928;28;20118;-83
2021/03/24 11:52:15;;;;;;;10.13;5.40;;;;;;;;;;5017014;28;20049;-79
2021/03/24 11:54:52;;;;;;;13.10;6.97;;;;;;;;;;5016717;28;20034;-80
2021/03/24 11:57:24;;;;;;;10.00;5.55;;;;;;;;;;5016712;28;20080;-80
2021/03/24 12:00:09;;;;;;;6.63;4.90;;;;;;;;;;5016812;28;20374;-79
2021/03/24 12:02:58;;;;;;;8.00;4.50;;;;;;;;;;5016942;28;20034;-80
2021/03/24 12:05:28;;;;;;;8.60;5.05;;;;;;;;;;4937463;29;20035;-82
2021/03/24 12:08:01;;;;;;;7.78;5.20;;;;;;;;;;4921286;29;20039;-79
2021/03/24 12:10:27;;;;;;;8.82;5.22;;;;;;;;;;4921102;29;20042;-79
2021/03/24 12:13:03;;;;;;;9.52;4.93;;;;;;;;;;4921133;29;20139;-79
2021/03/24 12:15:33;;;;;;;5.72;4.40;;;;;;;;;;4936611;29;20514;-78
2021/03/24 12:18:05;;;;;;;7.78;4.60;;;;;;;;;;4936380;29;20040;-80
2021/03/24 12:20:31;;;;;;;9.45;5.97;;;;;;;;;;4937365;29;20071;-80
2021/03/24 12:22:58;;;;;;;19.90;11.40;;;;;;;;;;4941155;29;20083;-79
2021/03/24 12:25:29;;;;;;;43.03;27.02;;;;;;;;;;4940865;29;20024;-80
2021/03/24 12:27:57;;;;;;;16.90;11.95;;;;;;;;;;4941010;29;20047;-79
2021/03/24 12:30:26;;;;;;;15.10;9.25;;;;;;;;;;4939856;29;20054;-80
2021/03/24 12:33:01;;;;;;;18.63;12.38;;;;;;;;;;4940835;29;20035;-80
2021/03/24 12:35:28;;;;;;;14.43;9.43;;;;;;;;;;4940423;29;20064;-79
2021/03/24 12:37:59;;;;;;;9.60;6.57;;;;;;;;;;4940609;29;20031;-79
2021/03/24 12:40:25;;;;;;;7.60;5.60;;;;;;;;;;4940307;29;20126;-79
2021/03/24 12:42:52;;;;;;;9.77;6.45;;;;;;;;;;4997243;28;20038;-79
2021/03/24 12:45:26;;;;;;;11.15;6.70;;;;;;;;;;5034818;28;20352;-79
2021/03/24 12:48:02;;;;;;;11.57;6.15;;;;;;;;;;5035382;28;20026;-79
2021/03/24 12:50:28;;;;;;;9.20;5.60;;;;;;;;;;4984889;28;20124;-80
2021/03/24 12:53:00;;;;;;;8.80;6.00;;;;;;;;;;5018920;28;20033;-80
2021/03/24 12:55:27;;;;;;;7.38;5.07;;;;;;;;;;5019933;28;20030;-80
2021/03/24 12:58:11;;;;;;;9.10;5.65;;;;;;;;;;5020136;28;20034;-80
2021/03/24 13:00:38;;;;;;;7.82;5.00;;;;;;;;;;5019574;28;20293;-80
2021/03/24 13:03:30;;;;;;;7.43;4.70;;;;;;;;;;5019629;28;20302;-79
2021/03/24 13:06:02;;;;;;;8.63;4.90;;;;;;;;;;4940320;29;20040;-80
2021/03/24 13:08:31;;;;;;;7.72;6.00;;;;;;;;;;4940062;29;20036;-80
2021/03/24 13:11:00;;;;;;;9.88;5.18;;;;;;;;;;4924311;29;20039;-79
2021/03/24 13:13:35;;;;;;;8.02;5.57;;;;;;;;;;4939811;29;20027;-79
2021/03/24 13:16:06;;;;;;;7.03;4.40;;;;;;;;;;4939985;29;20027;-80
2021/03/24 13:18:35;;;;;;;8.70;4.53;;;;;;;;;;4939541;29;20055;-79
2021/03/24 13:21:04;;;;;;;7.10;4.32;;;;;;;;;;4923835;29;20111;-78
2021/03/24 13:23:30;;;;;;;7.68;5.20;;;;;;;;;;4939938;29;20110;-79
2021/03/24 13:25:58;;;;;;;7.65;5.03;;;;;;;;;;4940111;29;20423;-79
2021/03/24 13:28:43;;;;;;;8.05;4.50;;;;;;;;;;4939586;29;20077;-81
2021/03/24 13:31:13;;;;;;;5.70;3.75;;;;;;;;;;4939213;29;20047;-80
2021/03/24 13:33:44;;;;;;;7.93;5.10;;;;;;;;;;4939319;29;20347;-80
2021/03/24 13:36:17;;;;;;;7.05;5.35;;;;;;;;;;4939766;29;20035;-80
2021/03/24 13:38:43;;;;;;;;;;;;;;;;;;4939966;29;20039;-82
2021/03/24 13:41:10;;;;;;;9.35;7.57;;;;;;;;;;4939644;29;20249;-79
2021/03/24 13:43:42;;;;;;;8.80;4.95;;;;;;;;;;4991679;28;20125;-79
2021/03/24 13:46:10;;;;;;;6.97;4.00;;;;;;;;;;5019306;28;20033;-79
2021/03/24 13:48:38;;;;;;;7.32;3.78;;;;;;;;;;5019023;28;20026;-79
2021/03/24 13:51:13;;;;;;;7.40;4.30;;;;;;;;;;5018809;28;20152;-79
2021/03/24 13:53:54;;;;;;;6.68;3.92;;;;;;;;;;5001460;28;20041;-80
2021/03/24 13:56:32;;;;;;;7.78;4.75;;;;;;;;;;5018869;28;20056;-80
2021/03/24 13:59:00;;;;;;;5.53;3.70;;;;;;;;;;5018710;28;20030;-79
2021/03/24 14:01:30;;;;;;;6.10;4.20;;;;;;;;;;5018767;28;20029;-80
2021/03/24 14:04:18;;;;;;;7.30;4.55;;;;;;;;;;5018714;28;20101;-80
2021/03/24 14:06:53;;;;;;;8.30;4.13;;;;;;;;;;5018305;28;20034;-80
2021/03/24 14:09:22;;;;;;;7.28;4.45;;;;;;;;;;5000709;28;20040;-79
2021/03/24 14:11:51;;;;;;;6.47;3.97;;;;;;;;;;5000814;28;20124;-80
2021/03/24 14:14:33;;;;;;;5.03;3.65;;;;;;;;;;5018469;28;20095;-80
2021/03/24 14:17:03;;;;;;;5.05;3.17;;;;;;;;;;5000974;28;20030;-80
2021/03/24 14:19:35;;;;;;;4.35;3.33;;;;;;;;;;5000738;28;20731;-80
2021/03/24 14:22:04;;;;;;;6.07;3.88;;;;;;;;;;5018089;28;20114;-80
2021/03/24 14:24:49;;;;;;;7.10;4.28;;;;;;;;;;5018116;28;20057;-80
2021/03/24 14:27:28;;;;;;;14.77;7.35;;;;;;;;;;5000795;28;20040;-79
2021/03/24 14:30:06;;;;;;;7.22;3.67;;;;;;;;;;5018025;28;20430;-80
2021/03/24 14:32:43;;;;;;;5.38;3.20;;;;;;;;;;5000200;28;20132;-80
2021/03/24 14:35:21;;;;;;;6.20;3.20;;;;;;;;;;5017941;28;20076;-80
2021/03/24 14:37:47;;;;;;;6.57;3.47;;;;;;;;;;5018013;28;20029;-80
2021/03/24 14:40:13;;;;;;;7.72;3.70;;;;;;;;;;5017630;28;20113;-80
2021/03/24 14:42:47;;;;;;;5.80;3.60;;;;;;;;;;4999995;28;20073;-79
2021/03/24 14:45:25;;;;;;;7.93;5.32;;;;;;;;;;4999787;28;20289;-79
2021/03/24 14:48:11;;;;;;;6.85;3.28;;;;;;;;;;5017809;28;20061;-79
2021/03/24 14:50:37;;;;;;;7.00;3.47;;;;;;;;;;5017392;28;20030;-79
2021/03/24 14:53:09;;;;;;;8.20;4.82;;;;;;;;;;5000054;28;20066;-79
2021/03/24 14:55:35;;;;;;;7.78;4.90;;;;;;;;;;5017858;28;20053;-79
2021/03/24 14:58:17;;;;;;;6.13;3.72;;;;;;;;;;5017769;28;20030;-79
2021/03/24 15:00:43;;;;;;;36.83;17.02;;;;;;;;;;5017212;28;20029;-80
2021/03/24 15:03:19;;;;;;;9.07;4.07;;;;;;;;;;5000146;28;20030;-79
2021/03/24 15:05:45;;;;;;;8.60;4.95;;;;;;;;;;5017531;28;20079;-79
2021/03/24 15:08:14;;;;;;;11.00;4.93;;;;;;;;;;4999708;28;20071;-79
2021/03/24 15:10:54;;;;;;;5.32;3.88;;;;;;;;;;5017479;28;20033;-80
2021/03/24 15:13:25;;;;;;;9.23;6.38;;;;;;;;;;5017046;28;20033;-80
2021/03/24 15:15:56;;;;;;;11.00;5.88;;;;;;;;;;5017151;28;20075;-83
2021/03/24 15:18:31;;;;;;;6.50;4.07;;;;;;;;;;5017438;28;20355;-81
2021/03/24 15:21:08;;;;;;;8.00;3.83;;;;;;;;;;5016920;28;20117;-80